sensor_id;sensor_type;location;lat;lon;timestamp;temperature;humidity
2435;DHT22;1228;51.022;6.764;2022-12-18T00:00:53;-5.40;99.90
2435;DHT22;1228;51.022;6.764;2022-12-18T00:03:19;-5.50;99.90
2435;DHT22;1228;51.022;6.764;2022-12-18T00:05:49;-5.50;99.90
2435;DHT22;1228;51.022;6.764;2022-12-18T00:08:15;-5.50;99.90
2435;DHT22;1228;51.022;6.764;2022-12-18T00:10:40;-5.50;99.90
2435;DHT22;1228;51.022;6.764;2022-12-18T00:13:06;-5.50;99.90
2435;DHT22;1228;51.022;6.764;2022-12-18T00:15:34;-5.40;99.90
2435;DHT22;1228;51.022;6.764;2022-12-18T00:17:59;-5.40;99.90
2435;DHT22;1228;51.022;6.764;2022-12-18T00:20:25;-5.40;99.90
2435;DHT22;1228;51.022;6.764;2022-12-18T00:22:52;-5.40;99.90
2435;DHT22;1228;51.022;6.764;2022-12-18T00:25:18;-5.40;99.90
2435;DHT22;1228;51.022;6.764;2022-12-18T00:27:44;-5.40;99.90
2435;DHT22;1228;51.022;6.764;2022-12-18T00:30:10;-5.40;99.90
2435;DHT22;1228;51.022;6.764;2022-12-18T00:32:35;-5.40;99.90
2435;DHT22;1228;51.022;6.764;2022-12-18T00:35:01;-5.40;99.90
2435;DHT22;1228;51.022;6.764;2022-12-18T00:37:27;-5.50;99.90
2435;DHT22;1228;51.022;6.764;2022-12-18T00:39:52;-5.50;99.90
2435;DHT22;1228;51.022;6.764;2022-12-18T00:42:18;-5.50;99.90
2435;DHT22;1228;51.022;6.764;2022-12-18T00:45:02;-5.50;99.90
2435;DHT22;1228;51.022;6.764;2022-12-18T00:47:28;-5.60;99.90
2435;DHT22;1228;51.022;6.764;2022-12-18T00:49:53;-5.70;99.90
2435;DHT22;1228;51.022;6.764;2022-12-18T00:52:19;-5.70;99.90
2435;DHT22;1228;51.022;6.764;2022-12-18T00:54:45;-5.70;99.90
2435;DHT22;1228;51.022;6.764;2022-12-18T00:57:10;-5.70;99.90
2435;DHT22;1228;51.022;6.764;2022-12-18T00:59:36;-5.70;99.90
2435;DHT22;1228;51.022;6.764;2022-12-18T01:02:01;-5.70;99.90
2435;DHT22;1228;51.022;6.764;2022-12-18T01:04:27;-5.70;99.90
2435;DHT22;1228;51.022;6.764;2022-12-18T01:06:52;-5.70;99.90
2435;DHT22;1228;51.022;6.764;2022-12-18T01:09:18;-5.70;99.90
2435;DHT22;1228;51.022;6.764;2022-12-18T01:11:43;-5.70;99.90
2435;DHT22;1228;51.022;6.764;2022-12-18T01:14:09;-5.70;99.90
2435;DHT22;1228;51.022;6.764;2022-12-18T01:16:35;-5.50;99.90
2435;DHT22;1228;51.022;6.764;2022-12-18T01:19:01;-5.70;99.90
2435;DHT22;1228;51.022;6.764;2022-12-18T01:21:26;-5.70;99.90
2435;DHT22;1228;51.022;6.764;2022-12-18T01:23:56;-5.70;99.90
2435;DHT22;1228;51.022;6.764;2022-12-18T01:26:22;-5.60;99.90
2435;DHT22;1228;51.022;6.764;2022-12-18T01:28:48;-5.60;99.90
2435;DHT22;1228;51.022;6.764;2022-12-18T01:33:47;-5.70;99.90
2435;DHT22;1228;51.022;6.764;2022-12-18T01:36:24;-5.70;99.90
2435;DHT22;1228;51.022;6.764;2022-12-18T01:38:51;-5.70;99.90
2435;DHT22;1228;51.022;6.764;2022-12-18T01:41:19;-5.80;99.90
2435;DHT22;1228;51.022;6.764;2022-12-18T01:46:14;-5.80;99.90
2435;DHT22;1228;51.022;6.764;2022-12-18T01:48:40;-5.80;99.90
2435;DHT22;1228;51.022;6.764;2022-12-18T01:51:08;-5.80;99.90
2435;DHT22;1228;51.022;6.764;2022-12-18T01:53:36;-5.90;99.90
2435;DHT22;1228;51.022;6.764;2022-12-18T01:56:03;-5.90;99.90
2435;DHT22;1228;51.022;6.764;2022-12-18T01:58:43;-5.80;99.90
2435;DHT22;1228;51.022;6.764;2022-12-18T02:01:12;-5.80;99.90
2435;DHT22;1228;51.022;6.764;2022-12-18T02:03:41;-5.80;99.90
2435;DHT22;1228;51.022;6.764;2022-12-18T02:06:21;-5.80;99.90
2435;DHT22;1228;51.022;6.764;2022-12-18T02:09:12;-5.80;99.90
2435;DHT22;1228;51.022;6.764;2022-12-18T02:11:59;-5.70;99.90
2435;DHT22;1228;51.022;6.764;2022-12-18T02:17:19;-5.60;99.90
2435;DHT22;1228;51.022;6.764;2022-12-18T02:28:30;-5.60;99.90
2435;DHT22;1228;51.022;6.764;2022-12-18T02:30:59;-5.60;99.90
2435;DHT22;1228;51.022;6.764;2022-12-18T02:33:27;-5.60;99.90
2435;DHT22;1228;51.022;6.764;2022-12-18T02:35:56;-5.60;99.90
2435;DHT22;1228;51.022;6.764;2022-12-18T02:38:23;-5.70;99.90
2435;DHT22;1228;51.022;6.764;2022-12-18T02:40:51;-5.70;99.90
2435;DHT22;1228;51.022;6.764;2022-12-18T02:43:18;-5.80;99.90
2435;DHT22;1228;51.022;6.764;2022-12-18T02:45:53;-5.80;99.90
2435;DHT22;1228;51.022;6.764;2022-12-18T02:48:23;-5.80;99.90
2435;DHT22;1228;51.022;6.764;2022-12-18T02:51:33;-5.80;99.90
2435;DHT22;1228;51.022;6.764;2022-12-18T02:54:06;-5.80;99.90
2435;DHT22;1228;51.022;6.764;2022-12-18T02:56:44;-5.80;99.90
2435;DHT22;1228;51.022;6.764;2022-12-18T02:59:19;-5.70;99.90
2435;DHT22;1228;51.022;6.764;2022-12-18T03:01:57;-5.70;99.90
2435;DHT22;1228;51.022;6.764;2022-12-18T03:07:03;-5.90;99.90
2435;DHT22;1228;51.022;6.764;2022-12-18T03:09:36;-5.70;99.90
2435;DHT22;1228;51.022;6.764;2022-12-18T03:12:20;-5.70;99.90
2435;DHT22;1228;51.022;6.764;2022-12-18T03:15:01;-5.70;99.90
2435;DHT22;1228;51.022;6.764;2022-12-18T03:17:31;-5.70;99.90
2435;DHT22;1228;51.022;6.764;2022-12-18T03:20:00;-5.70;99.90
2435;DHT22;1228;51.022;6.764;2022-12-18T03:22:30;-5.70;99.90
2435;DHT22;1228;51.022;6.764;2022-12-18T03:24:58;-5.70;99.90
2435;DHT22;1228;51.022;6.764;2022-12-18T03:27:26;-5.70;99.90
2435;DHT22;1228;51.022;6.764;2022-12-18T03:32:31;-5.80;99.90
2435;DHT22;1228;51.022;6.764;2022-12-18T03:35:00;-5.80;99.90
2435;DHT22;1228;51.022;6.764;2022-12-18T03:37:28;-5.80;99.90
2435;DHT22;1228;51.022;6.764;2022-12-18T03:39:53;-5.80;99.90
2435;DHT22;1228;51.022;6.764;2022-12-18T03:42:40;-5.80;99.90
2435;DHT22;1228;51.022;6.764;2022-12-18T03:45:19;-5.90;99.90
2435;DHT22;1228;51.022;6.764;2022-12-18T03:48:02;-5.90;99.90
2435;DHT22;1228;51.022;6.764;2022-12-18T03:50:47;-5.90;99.90
2435;DHT22;1228;51.022;6.764;2022-12-18T03:55:47;-5.90;99.90
2435;DHT22;1228;51.022;6.764;2022-12-18T03:58:19;-5.80;99.90
2435;DHT22;1228;51.022;6.764;2022-12-18T04:00:45;-5.80;99.90
2435;DHT22;1228;51.022;6.764;2022-12-18T04:03:14;-5.80;99.90
2435;DHT22;1228;51.022;6.764;2022-12-18T04:05:41;-5.80;99.90
2435;DHT22;1228;51.022;6.764;2022-12-18T04:08:08;-5.80;99.90
2435;DHT22;1228;51.022;6.764;2022-12-18T04:10:34;-5.70;99.90
2435;DHT22;1228;51.022;6.764;2022-12-18T04:13:00;-5.70;99.90
2435;DHT22;1228;51.022;6.764;2022-12-18T04:15:25;-5.70;99.90
2435;DHT22;1228;51.022;6.764;2022-12-18T04:17:51;-5.70;99.90
2435;DHT22;1228;51.022;6.764;2022-12-18T04:20:17;-5.70;99.90
2435;DHT22;1228;51.022;6.764;2022-12-18T04:22:43;-5.70;99.90
2435;DHT22;1228;51.022;6.764;2022-12-18T04:25:08;-5.70;99.90
2435;DHT22;1228;51.022;6.764;2022-12-18T04:27:34;-5.70;99.90
2435;DHT22;1228;51.022;6.764;2022-12-18T04:30:00;-5.70;99.90
2435;DHT22;1228;51.022;6.764;2022-12-18T04:32:26;-5.70;99.90
2435;DHT22;1228;51.022;6.764;2022-12-18T04:34:51;-5.80;99.90
2435;DHT22;1228;51.022;6.764;2022-12-18T04:37:17;-5.80;99.90
2435;DHT22;1228;51.022;6.764;2022-12-18T04:39:43;-5.80;99.90
2435;DHT22;1228;51.022;6.764;2022-12-18T04:42:08;-5.80;99.90
2435;DHT22;1228;51.022;6.764;2022-12-18T04:44:34;-5.80;99.90
2435;DHT22;1228;51.022;6.764;2022-12-18T04:46:59;-6.20;99.90
2435;DHT22;1228;51.022;6.764;2022-12-18T04:49:25;-5.80;99.90
2435;DHT22;1228;51.022;6.764;2022-12-18T04:51:51;-5.70;99.90
2435;DHT22;1228;51.022;6.764;2022-12-18T04:54:17;-5.70;99.90
2435;DHT22;1228;51.022;6.764;2022-12-18T04:56:45;-5.80;99.90
2435;DHT22;1228;51.022;6.764;2022-12-18T04:59:11;-5.80;99.90
2435;DHT22;1228;51.022;6.764;2022-12-18T05:01:36;-5.80;99.90
2435;DHT22;1228;51.022;6.764;2022-12-18T05:04:02;-5.80;99.90
2435;DHT22;1228;51.022;6.764;2022-12-18T05:06:28;-5.80;99.90
2435;DHT22;1228;51.022;6.764;2022-12-18T05:08:54;-5.70;99.90
2435;DHT22;1228;51.022;6.764;2022-12-18T05:11:19;-5.70;99.90
2435;DHT22;1228;51.022;6.764;2022-12-18T05:13:45;-5.60;99.90
2435;DHT22;1228;51.022;6.764;2022-12-18T05:16:11;-5.60;99.90
2435;DHT22;1228;51.022;6.764;2022-12-18T05:18:37;-5.60;99.90
2435;DHT22;1228;51.022;6.764;2022-12-18T05:21:03;-5.50;99.90
2435;DHT22;1228;51.022;6.764;2022-12-18T05:23:29;-5.50;99.90
2435;DHT22;1228;51.022;6.764;2022-12-18T05:25:57;-5.50;99.90
2435;DHT22;1228;51.022;6.764;2022-12-18T05:28:24;-5.50;99.90
2435;DHT22;1228;51.022;6.764;2022-12-18T05:30:51;-5.50;99.90
2435;DHT22;1228;51.022;6.764;2022-12-18T05:33:18;-5.50;99.90
2435;DHT22;1228;51.022;6.764;2022-12-18T05:35:44;-5.50;99.90
2435;DHT22;1228;51.022;6.764;2022-12-18T05:38:10;-5.50;99.90
2435;DHT22;1228;51.022;6.764;2022-12-18T05:40:36;-5.50;99.90
2435;DHT22;1228;51.022;6.764;2022-12-18T05:43:02;-5.50;99.90
2435;DHT22;1228;51.022;6.764;2022-12-18T05:45:27;-5.50;99.90
2435;DHT22;1228;51.022;6.764;2022-12-18T05:47:53;-5.50;99.90
2435;DHT22;1228;51.022;6.764;2022-12-18T05:50:18;-5.50;99.90
2435;DHT22;1228;51.022;6.764;2022-12-18T05:52:44;-5.50;99.90
2435;DHT22;1228;51.022;6.764;2022-12-18T05:55:10;-5.50;99.90
2435;DHT22;1228;51.022;6.764;2022-12-18T05:57:35;-5.40;99.90
2435;DHT22;1228;51.022;6.764;2022-12-18T06:00:01;-5.40;99.90
2435;DHT22;1228;51.022;6.764;2022-12-18T06:02:27;-5.40;99.90
2435;DHT22;1228;51.022;6.764;2022-12-18T06:04:52;-5.40;99.90
2435;DHT22;1228;51.022;6.764;2022-12-18T06:07:18;-5.40;99.90
2435;DHT22;1228;51.022;6.764;2022-12-18T06:09:43;-5.40;99.90
2435;DHT22;1228;51.022;6.764;2022-12-18T06:12:09;-5.50;99.90
2435;DHT22;1228;51.022;6.764;2022-12-18T06:14:35;-5.50;99.90
2435;DHT22;1228;51.022;6.764;2022-12-18T06:17:01;-5.30;99.90
2435;DHT22;1228;51.022;6.764;2022-12-18T06:19:27;-5.50;99.90
2435;DHT22;1228;51.022;6.764;2022-12-18T06:21:52;-5.40;99.90
2435;DHT22;1228;51.022;6.764;2022-12-18T06:24:18;-5.40;99.90
2435;DHT22;1228;51.022;6.764;2022-12-18T06:26:44;-5.40;99.90
2435;DHT22;1228;51.022;6.764;2022-12-18T06:29:09;-5.40;99.90
2435;DHT22;1228;51.022;6.764;2022-12-18T06:31:35;-5.40;99.90
2435;DHT22;1228;51.022;6.764;2022-12-18T06:34:04;-5.40;99.90
2435;DHT22;1228;51.022;6.764;2022-12-18T06:36:30;-5.40;99.90
2435;DHT22;1228;51.022;6.764;2022-12-18T06:38:56;-5.50;99.90
2435;DHT22;1228;51.022;6.764;2022-12-18T06:41:22;-5.50;99.90
2435;DHT22;1228;51.022;6.764;2022-12-18T06:43:47;-5.40;99.90
2435;DHT22;1228;51.022;6.764;2022-12-18T06:46:13;-5.50;99.90
2435;DHT22;1228;51.022;6.764;2022-12-18T06:48:39;-5.50;99.90
2435;DHT22;1228;51.022;6.764;2022-12-18T06:51:05;-5.40;99.90
2435;DHT22;1228;51.022;6.764;2022-12-18T06:53:32;-5.40;99.90
2435;DHT22;1228;51.022;6.764;2022-12-18T06:56:06;-5.40;99.90
2435;DHT22;1228;51.022;6.764;2022-12-18T06:58:32;-5.40;99.90
2435;DHT22;1228;51.022;6.764;2022-12-18T07:01:05;-5.40;99.90
2435;DHT22;1228;51.022;6.764;2022-12-18T07:03:31;-5.30;99.90
2435;DHT22;1228;51.022;6.764;2022-12-18T07:05:57;-5.30;99.90
2435;DHT22;1228;51.022;6.764;2022-12-18T07:08:23;-5.40;99.90
2435;DHT22;1228;51.022;6.764;2022-12-18T07:10:48;-5.30;99.90
2435;DHT22;1228;51.022;6.764;2022-12-18T07:13:16;-5.30;99.90
2435;DHT22;1228;51.022;6.764;2022-12-18T07:15:42;-5.30;99.90
2435;DHT22;1228;51.022;6.764;2022-12-18T07:18:08;-5.30;99.90
2435;DHT22;1228;51.022;6.764;2022-12-18T07:20:33;-5.30;99.90
2435;DHT22;1228;51.022;6.764;2022-12-18T07:23:02;-5.20;99.90
2435;DHT22;1228;51.022;6.764;2022-12-18T07:25:28;-5.30;99.90
2435;DHT22;1228;51.022;6.764;2022-12-18T07:27:54;-5.20;99.90
2435;DHT22;1228;51.022;6.764;2022-12-18T07:30:20;-5.20;99.90
2435;DHT22;1228;51.022;6.764;2022-12-18T07:32:46;-5.20;99.90
2435;DHT22;1228;51.022;6.764;2022-12-18T07:35:11;-5.20;99.90
2435;DHT22;1228;51.022;6.764;2022-12-18T07:37:37;-5.20;99.90
2435;DHT22;1228;51.022;6.764;2022-12-18T07:40:02;-5.20;99.90
2435;DHT22;1228;51.022;6.764;2022-12-18T07:42:28;-5.20;99.90
2435;DHT22;1228;51.022;6.764;2022-12-18T07:44:58;-5.20;99.90
2435;DHT22;1228;51.022;6.764;2022-12-18T07:47:23;-5.10;99.90
2435;DHT22;1228;51.022;6.764;2022-12-18T07:49:49;-5.10;99.90
2435;DHT22;1228;51.022;6.764;2022-12-18T07:52:15;-5.10;99.90
2435;DHT22;1228;51.022;6.764;2022-12-18T07:54:41;-5.00;99.90
2435;DHT22;1228;51.022;6.764;2022-12-18T07:57:07;-5.00;99.90
2435;DHT22;1228;51.022;6.764;2022-12-18T07:59:33;-5.00;99.90
2435;DHT22;1228;51.022;6.764;2022-12-18T08:01:58;-4.90;99.90
2435;DHT22;1228;51.022;6.764;2022-12-18T08:04:25;-4.90;99.90
2435;DHT22;1228;51.022;6.764;2022-12-18T08:06:51;-4.80;99.90
2435;DHT22;1228;51.022;6.764;2022-12-18T08:09:17;-4.90;99.90
2435;DHT22;1228;51.022;6.764;2022-12-18T08:11:43;-4.80;99.90
2435;DHT22;1228;51.022;6.764;2022-12-18T08:14:08;-4.70;99.90
2435;DHT22;1228;51.022;6.764;2022-12-18T08:16:34;-4.60;99.90
2435;DHT22;1228;51.022;6.764;2022-12-18T08:19:00;-4.50;99.90
2435;DHT22;1228;51.022;6.764;2022-12-18T08:21:27;-4.50;99.90
2435;DHT22;1228;51.022;6.764;2022-12-18T08:23:55;-4.40;99.90
2435;DHT22;1228;51.022;6.764;2022-12-18T08:26:23;-4.30;99.90
2435;DHT22;1228;51.022;6.764;2022-12-18T08:28:50;-4.20;99.90
2435;DHT22;1228;51.022;6.764;2022-12-18T08:31:15;-4.20;99.90
2435;DHT22;1228;51.022;6.764;2022-12-18T08:33:41;-4.10;99.90
2435;DHT22;1228;51.022;6.764;2022-12-18T08:36:08;-4.00;99.90
2435;DHT22;1228;51.022;6.764;2022-12-18T08:38:35;-4.00;99.90
2435;DHT22;1228;51.022;6.764;2022-12-18T08:41:06;-3.90;99.90
2435;DHT22;1228;51.022;6.764;2022-12-18T08:43:32;-3.80;99.90
2435;DHT22;1228;51.022;6.764;2022-12-18T08:46:21;-3.80;99.90
2435;DHT22;1228;51.022;6.764;2022-12-18T08:48:47;-3.70;99.90
2435;DHT22;1228;51.022;6.764;2022-12-18T08:51:15;-3.60;99.90
2435;DHT22;1228;51.022;6.764;2022-12-18T08:53:41;-3.50;99.90
2435;DHT22;1228;51.022;6.764;2022-12-18T08:56:07;-3.40;99.90
2435;DHT22;1228;51.022;6.764;2022-12-18T08:58:33;-3.30;99.90
2435;DHT22;1228;51.022;6.764;2022-12-18T09:01:07;-3.10;99.90
2435;DHT22;1228;51.022;6.764;2022-12-18T09:03:34;-2.80;99.90
2435;DHT22;1228;51.022;6.764;2022-12-18T09:06:00;-2.50;99.90
2435;DHT22;1228;51.022;6.764;2022-12-18T09:08:26;-2.30;99.90
2435;DHT22;1228;51.022;6.764;2022-12-18T09:10:52;-2.10;99.90
2435;DHT22;1228;51.022;6.764;2022-12-18T09:13:18;-1.90;99.90
2435;DHT22;1228;51.022;6.764;2022-12-18T09:15:46;-1.90;99.90
2435;DHT22;1228;51.022;6.764;2022-12-18T09:18:13;-1.80;90.80
2435;DHT22;1228;51.022;6.764;2022-12-18T09:20:39;-1.80;90.70
2435;DHT22;1228;51.022;6.764;2022-12-18T09:23:05;-1.80;71.90
2435;DHT22;1228;51.022;6.764;2022-12-18T09:25:32;-1.90;70.30
2435;DHT22;1228;51.022;6.764;2022-12-18T09:27:59;-1.70;85.30
2435;DHT22;1228;51.022;6.764;2022-12-18T09:30:26;-1.50;92.40
2435;DHT22;1228;51.022;6.764;2022-12-18T09:32:51;-1.30;90.30
2435;DHT22;1228;51.022;6.764;2022-12-18T09:35:17;-1.00;92.30
2435;DHT22;1228;51.022;6.764;2022-12-18T09:37:42;-0.90;40.00
2435;DHT22;1228;51.022;6.764;2022-12-18T09:40:14;-0.80;16.60
2435;DHT22;1228;51.022;6.764;2022-12-18T09:42:45;-0.70;24.90
2435;DHT22;1228;51.022;6.764;2022-12-18T09:45:14;-0.70;8.90
2435;DHT22;1228;51.022;6.764;2022-12-18T09:47:42;-0.70;19.20
2435;DHT22;1228;51.022;6.764;2022-12-18T09:50:28;-0.60;32.80
2435;DHT22;1228;51.022;6.764;2022-12-18T09:52:58;-0.60;1.00
2435;DHT22;1228;51.022;6.764;2022-12-18T09:55:34;-0.60;8.20
2435;DHT22;1228;51.022;6.764;2022-12-18T09:58:07;-0.60;3.00
2435;DHT22;1228;51.022;6.764;2022-12-18T10:00:37;-0.70;1.00
2435;DHT22;1228;51.022;6.764;2022-12-18T10:03:12;-0.70;16.00
2435;DHT22;1228;51.022;6.764;2022-12-18T10:08:37;-0.90;5.50
2435;DHT22;1228;51.022;6.764;2022-12-18T10:13:57;-1.00;15.40
2435;DHT22;1228;51.022;6.764;2022-12-18T10:22:15;-0.90;17.60
2435;DHT22;1228;51.022;6.764;2022-12-18T10:27:22;-0.60;14.90
2435;DHT22;1228;51.022;6.764;2022-12-18T10:29:48;-0.70;1.00
2435;DHT22;1228;51.022;6.764;2022-12-18T10:32:23;-0.50;7.70
2435;DHT22;1228;51.022;6.764;2022-12-18T10:34:53;-0.40;1.90
2435;DHT22;1228;51.022;6.764;2022-12-18T10:37:22;-0.10;1.00
2435;DHT22;1228;51.022;6.764;2022-12-18T10:40:11;-0.40;1.00
2435;DHT22;1228;51.022;6.764;2022-12-18T10:42:37;-0.30;1.00
2435;DHT22;1228;51.022;6.764;2022-12-18T10:47:34;-0.20;1.00
2435;DHT22;1228;51.022;6.764;2022-12-18T10:50:01;-0.20;1.00
2435;DHT22;1228;51.022;6.764;2022-12-18T10:52:27;-0.20;1.00
2435;DHT22;1228;51.022;6.764;2022-12-18T10:54:55;-0.30;1.00
2435;DHT22;1228;51.022;6.764;2022-12-18T10:57:30;-0.20;1.00
2435;DHT22;1228;51.022;6.764;2022-12-18T10:59:58;-0.30;1.00
2435;DHT22;1228;51.022;6.764;2022-12-18T11:02:35;-0.20;1.00
2435;DHT22;1228;51.022;6.764;2022-12-18T11:05:01;-0.20;1.00
2435;DHT22;1228;51.022;6.764;2022-12-18T11:07:47;-0.20;1.00
2435;DHT22;1228;51.022;6.764;2022-12-18T11:10:18;-0.20;1.00
2435;DHT22;1228;51.022;6.764;2022-12-18T11:12:44;-0.10;1.00
2435;DHT22;1228;51.022;6.764;2022-12-18T11:15:23;-0.10;1.00
2435;DHT22;1228;51.022;6.764;2022-12-18T11:17:51;0.00;1.00
2435;DHT22;1228;51.022;6.764;2022-12-18T11:23:05;0.00;1.00
2435;DHT22;1228;51.022;6.764;2022-12-18T11:25:36;-0.20;1.00
2435;DHT22;1228;51.022;6.764;2022-12-18T11:28:26;-0.20;1.00
2435;DHT22;1228;51.022;6.764;2022-12-18T11:31:08;-0.20;1.00
2435;DHT22;1228;51.022;6.764;2022-12-18T11:33:35;-0.20;1.00
2435;DHT22;1228;51.022;6.764;2022-12-18T11:36:04;-0.10;1.00
2435;DHT22;1228;51.022;6.764;2022-12-18T11:38:35;0.00;1.00
2435;DHT22;1228;51.022;6.764;2022-12-18T11:41:07;0.00;1.00
2435;DHT22;1228;51.022;6.764;2022-12-18T11:44:00;0.00;1.00
2435;DHT22;1228;51.022;6.764;2022-12-18T11:46:39;0.00;1.00
2435;DHT22;1228;51.022;6.764;2022-12-18T11:54:26;-0.10;1.00
2435;DHT22;1228;51.022;6.764;2022-12-18T11:57:01;-0.10;1.00
2435;DHT22;1228;51.022;6.764;2022-12-18T12:06:00;-0.20;1.00
2435;DHT22;1228;51.022;6.764;2022-12-18T12:16:43;-0.30;1.00
2435;DHT22;1228;51.022;6.764;2022-12-18T12:19:19;-0.30;1.00
2435;DHT22;1228;51.022;6.764;2022-12-18T12:22:00;-0.20;1.00
2435;DHT22;1228;51.022;6.764;2022-12-18T12:27:15;-0.20;1.00
2435;DHT22;1228;51.022;6.764;2022-12-18T12:30:05;-0.20;1.00
2435;DHT22;1228;51.022;6.764;2022-12-18T12:35:39;-0.10;1.00
2435;DHT22;1228;51.022;6.764;2022-12-18T12:38:16;-0.20;1.00
2435;DHT22;1228;51.022;6.764;2022-12-18T12:40:50;-0.20;1.00
2435;DHT22;1228;51.022;6.764;2022-12-18T12:46:05;-0.20;1.00
2435;DHT22;1228;51.022;6.764;2022-12-18T12:48:48;-0.20;1.00
2435;DHT22;1228;51.022;6.764;2022-12-18T12:51:21;-0.20;1.00
2435;DHT22;1228;51.022;6.764;2022-12-18T12:53:48;-0.20;1.00
2435;DHT22;1228;51.022;6.764;2022-12-18T12:56:16;-0.20;1.00
2435;DHT22;1228;51.022;6.764;2022-12-18T13:02:47;-0.20;1.00
2435;DHT22;1228;51.022;6.764;2022-12-18T13:05:59;-0.20;1.00
2435;DHT22;1228;51.022;6.764;2022-12-18T13:08:01;-0.20;1.00
2435;DHT22;1228;51.022;6.764;2022-12-18T13:10:32;-0.20;1.00
2435;DHT22;1228;51.022;6.764;2022-12-18T13:28:57;-0.30;1.00
2435;DHT22;1228;51.022;6.764;2022-12-18T13:34:19;-0.30;1.00
2435;DHT22;1228;51.022;6.764;2022-12-18T13:36:46;-0.40;1.00
2435;DHT22;1228;51.022;6.764;2022-12-18T13:41:41;-0.40;1.00
2435;DHT22;1228;51.022;6.764;2022-12-18T13:44:25;-0.40;1.00
2435;DHT22;1228;51.022;6.764;2022-12-18T13:46:53;-0.40;1.00
2435;DHT22;1228;51.022;6.764;2022-12-18T13:49:38;-0.40;1.00
2435;DHT22;1228;51.022;6.764;2022-12-18T13:52:17;-0.40;1.00
2435;DHT22;1228;51.022;6.764;2022-12-18T13:54:47;-0.50;1.00
2435;DHT22;1228;51.022;6.764;2022-12-18T13:57:31;-0.50;1.00
2435;DHT22;1228;51.022;6.764;2022-12-18T13:59:58;-0.50;1.00
2435;DHT22;1228;51.022;6.764;2022-12-18T14:02:27;-0.50;1.00
2435;DHT22;1228;51.022;6.764;2022-12-18T14:04:53;-0.50;1.00
2435;DHT22;1228;51.022;6.764;2022-12-18T14:07:23;-0.50;1.00
2435;DHT22;1228;51.022;6.764;2022-12-18T14:09:53;-0.60;1.00
2435;DHT22;1228;51.022;6.764;2022-12-18T14:12:26;-0.60;1.00
2435;DHT22;1228;51.022;6.764;2022-12-18T14:20:29;-0.70;1.00
2435;DHT22;1228;51.022;6.764;2022-12-18T14:22:57;-0.70;1.00
2435;DHT22;1228;51.022;6.764;2022-12-18T14:25:24;-0.70;1.00
2435;DHT22;1228;51.022;6.764;2022-12-18T14:28:12;-0.70;1.00
2435;DHT22;1228;51.022;6.764;2022-12-18T14:30:41;-0.70;1.00
2435;DHT22;1228;51.022;6.764;2022-12-18T14:33:13;-0.70;1.00
2435;DHT22;1228;51.022;6.764;2022-12-18T14:35:52;-0.70;1.00
2435;DHT22;1228;51.022;6.764;2022-12-18T14:40:57;-0.80;1.00
2435;DHT22;1228;51.022;6.764;2022-12-18T14:43:23;-0.80;1.00
2435;DHT22;1228;51.022;6.764;2022-12-18T14:45:49;-0.80;1.00
2435;DHT22;1228;51.022;6.764;2022-12-18T14:48:21;-0.80;1.00
2435;DHT22;1228;51.022;6.764;2022-12-18T14:50:56;-0.80;1.00
2435;DHT22;1228;51.022;6.764;2022-12-18T14:55:57;-0.80;1.00
2435;DHT22;1228;51.022;6.764;2022-12-18T14:58:23;-0.80;1.00
2435;DHT22;1228;51.022;6.764;2022-12-18T15:00:48;-0.80;1.00
2435;DHT22;1228;51.022;6.764;2022-12-18T15:03:18;-0.80;1.00
2435;DHT22;1228;51.022;6.764;2022-12-18T15:05:45;-0.80;1.00
2435;DHT22;1228;51.022;6.764;2022-12-18T15:08:36;-0.80;1.00
2435;DHT22;1228;51.022;6.764;2022-12-18T15:11:02;-0.90;1.00
2435;DHT22;1228;51.022;6.764;2022-12-18T15:13:28;-0.90;1.00
2435;DHT22;1228;51.022;6.764;2022-12-18T15:15:56;-0.90;1.00
2435;DHT22;1228;51.022;6.764;2022-12-18T15:18:34;-0.90;1.00
2435;DHT22;1228;51.022;6.764;2022-12-18T15:21:08;-0.90;1.00
2435;DHT22;1228;51.022;6.764;2022-12-18T15:23:45;-0.90;1.00
2435;DHT22;1228;51.022;6.764;2022-12-18T15:26:13;-0.90;1.00
2435;DHT22;1228;51.022;6.764;2022-12-18T15:28:47;-0.90;1.00
2435;DHT22;1228;51.022;6.764;2022-12-18T15:33:40;-0.90;1.00
2435;DHT22;1228;51.022;6.764;2022-12-18T15:36:12;-0.90;1.00
2435;DHT22;1228;51.022;6.764;2022-12-18T15:38:38;-1.00;1.00
2435;DHT22;1228;51.022;6.764;2022-12-18T15:41:04;-1.00;1.00
2435;DHT22;1228;51.022;6.764;2022-12-18T15:43:30;-1.00;1.00
2435;DHT22;1228;51.022;6.764;2022-12-18T15:46:00;-1.00;1.00
2435;DHT22;1228;51.022;6.764;2022-12-18T15:48:26;-1.00;1.00
2435;DHT22;1228;51.022;6.764;2022-12-18T15:50:53;-1.00;1.00
2435;DHT22;1228;51.022;6.764;2022-12-18T15:53:19;-1.00;1.00
2435;DHT22;1228;51.022;6.764;2022-12-18T15:55:45;-1.00;1.00
2435;DHT22;1228;51.022;6.764;2022-12-18T15:58:29;-1.00;1.00
2435;DHT22;1228;51.022;6.764;2022-12-18T16:00:56;-1.00;1.00
2435;DHT22;1228;51.022;6.764;2022-12-18T16:03:23;-1.00;1.00
2435;DHT22;1228;51.022;6.764;2022-12-18T16:05:49;-1.10;1.00
2435;DHT22;1228;51.022;6.764;2022-12-18T16:08:14;-1.10;1.00
2435;DHT22;1228;51.022;6.764;2022-12-18T16:10:40;-1.10;1.00
2435;DHT22;1228;51.022;6.764;2022-12-18T16:13:09;-1.00;1.00
2435;DHT22;1228;51.022;6.764;2022-12-18T16:15:35;-1.00;2.20
2435;DHT22;1228;51.022;6.764;2022-12-18T16:18:00;-1.10;1.00
2435;DHT22;1228;51.022;6.764;2022-12-18T16:20:26;-1.10;3.30
2435;DHT22;1228;51.022;6.764;2022-12-18T16:22:51;-1.10;3.20
2435;DHT22;1228;51.022;6.764;2022-12-18T16:25:24;-1.00;4.10
2435;DHT22;1228;51.022;6.764;2022-12-18T16:27:50;-1.00;6.00
2435;DHT22;1228;51.022;6.764;2022-12-18T16:30:19;-1.00;5.40
2435;DHT22;1228;51.022;6.764;2022-12-18T16:32:46;-1.00;8.70
2435;DHT22;1228;51.022;6.764;2022-12-18T16:35:13;-1.00;9.90
2435;DHT22;1228;51.022;6.764;2022-12-18T16:37:39;-1.10;10.00
2435;DHT22;1228;51.022;6.764;2022-12-18T16:40:08;-1.00;12.40
2435;DHT22;1228;51.022;6.764;2022-12-18T16:42:35;-1.10;15.60
2435;DHT22;1228;51.022;6.764;2022-12-18T16:45:02;-1.10;16.40
2435;DHT22;1228;51.022;6.764;2022-12-18T16:47:28;-1.00;36.70
2435;DHT22;1228;51.022;6.764;2022-12-18T16:49:54;-1.10;20.90
2435;DHT22;1228;51.022;6.764;2022-12-18T16:52:20;-1.10;22.20
2435;DHT22;1228;51.022;6.764;2022-12-18T16:54:46;-1.10;24.80
2435;DHT22;1228;51.022;6.764;2022-12-18T16:57:13;-1.20;45.80
2435;DHT22;1228;51.022;6.764;2022-12-18T16:59:39;-1.20;28.10
2435;DHT22;1228;51.022;6.764;2022-12-18T17:02:08;-1.20;32.10
2435;DHT22;1228;51.022;6.764;2022-12-18T17:04:36;-1.20;33.00
2435;DHT22;1228;51.022;6.764;2022-12-18T17:07:01;-1.20;36.60
2435;DHT22;1228;51.022;6.764;2022-12-18T17:09:28;-1.20;39.20
2435;DHT22;1228;51.022;6.764;2022-12-18T17:11:54;-1.20;42.90
2435;DHT22;1228;51.022;6.764;2022-12-18T17:14:21;-1.20;44.80
2435;DHT22;1228;51.022;6.764;2022-12-18T17:16:47;-1.20;48.80
2435;DHT22;1228;51.022;6.764;2022-12-18T17:19:14;-1.20;51.50
2435;DHT22;1228;51.022;6.764;2022-12-18T17:21:42;-1.20;53.80
2435;DHT22;1228;51.022;6.764;2022-12-18T17:24:08;-1.20;51.40
2435;DHT22;1228;51.022;6.764;2022-12-18T17:26:33;-1.20;54.00
2435;DHT22;1228;51.022;6.764;2022-12-18T17:28:59;-1.20;54.20
2435;DHT22;1228;51.022;6.764;2022-12-18T17:31:27;-1.30;54.70
2435;DHT22;1228;51.022;6.764;2022-12-18T17:33:53;-1.20;53.80
2435;DHT22;1228;51.022;6.764;2022-12-18T17:36:20;-1.30;55.40
2435;DHT22;1228;51.022;6.764;2022-12-18T17:38:54;-1.20;55.00
2435;DHT22;1228;51.022;6.764;2022-12-18T17:41:20;-1.30;54.90
2435;DHT22;1228;51.022;6.764;2022-12-18T17:44:04;-1.30;53.50
2435;DHT22;1228;51.022;6.764;2022-12-18T17:46:32;-1.20;54.20
2435;DHT22;1228;51.022;6.764;2022-12-18T17:48:58;-1.20;54.30
2435;DHT22;1228;51.022;6.764;2022-12-18T17:51:25;-1.20;48.90
2435;DHT22;1228;51.022;6.764;2022-12-18T17:53:51;-1.20;49.30
2435;DHT22;1228;51.022;6.764;2022-12-18T17:56:19;-1.30;49.70
2435;DHT22;1228;51.022;6.764;2022-12-18T17:58:45;-1.30;49.50
2435;DHT22;1228;51.022;6.764;2022-12-18T18:01:14;-1.30;47.10
2435;DHT22;1228;51.022;6.764;2022-12-18T18:03:40;-1.30;50.50
2435;DHT22;1228;51.022;6.764;2022-12-18T18:06:06;-1.30;51.00
2435;DHT22;1228;51.022;6.764;2022-12-18T18:08:33;-1.30;52.40